Merritt Island, FL (32953)

11:08 AM EST on January 18, 2017 (GMT -0500)
Raintree by the Lake | | Change Station

Elev 14 ft 28.40 °N, 80.70 °W | Updated 2 minutes ago

Partly Cloudy
Partly Cloudy
76.3 °F
Feels Like 78 °F
N
2.2
Wind Variable Wind from SE
Gusts 2.5 mph

Today
High -- | Low -- °F
--% Chance of Precip.
Yesterday
High -- | Low -- °F
Precip. -- in
Pressure 30.20 in
Visibility 1.5 miles
Clouds Clear
Heat Index 78 °F
Dew Point 62 °F
Humidity 61%
Rainfall 0.00 in
Snow Depth Not available.
7:15 AM 5:51 PM
Waning Gibbous, 62% visible
METAR KXMR 181558Z AUTO 24010KT 1 1/2SM HZ CLR 24/16 A3019 RMK AO2 SLP226 T02430164 $
Pressure 30.20 in
Visibility 1.5 miles
Clouds Clear
Heat Index 78 °F
Dew Point 62 °F
Humidity 61%
Rainfall 0.00 in
Snow Depth Not available.
7:15 AM 5:51 PM
Waning Gibbous, 62% visible
METAR KXMR 181558Z AUTO 24010KT 1 1/2SM HZ CLR 24/16 A3019 RMK AO2 SLP226 T02430164 $

Get Your Daily Forecast Email!

Thanks for signing up!

Be on the lookout for a verification email in your inbox.

You'll start receiving the daily forecast at 8 AM.

×

10-Day Weather Forecast

Almanac

Astronomy

Jan. 18, 2017 Rise Set
Actual Time
Civil Twilight
Nautical Twilight
Astronomical Twilight
Moon
Length of Visible Light
Length of Day
Tomorrow will be .
, % of the Moon is Illuminated

Today's Extremes

State Highs State Lows

Community

WunderPhotos

Upload Photos

1,962,540 photos uploaded!

WunderBlog® & News

Nearby

Air Quality

  Air Quality AQ Index Pollutant
Not available.

Snow Depth

Station Depth Elevation

Earthquake Activity

City Distance Mag. Time & Date
Minimum magnitude displayed is 2.5.

Coastal Water Temperatures

Place Temperature

Stations

Nearby Weather Stations

Station Location Temp. Windchill Dew Point Humidity Wind Precip. Elev Updated Type
                   

Watches & Warnings

There are currently no watches in effect.